Temple Hills, Maryland
Current Conditions -  °F | °C
As of 8:03 AM on Wednesday 22 Oct 2014 (Local Time) from KADW Reporting Station
Heavy Rain Heavy Rain  
Wind Chill: 54°   Ceiling: 600
Heat Index: 54°   Visibility: 5mi
Dew Point: 52°   Wind: 16mph
Humidity: 94%   Direction: 340°NNW
Pressure: 29.88"   Gusts: NA
Location:  38.82°N, 76.95°W
Report Text: KADW 221203Z AUTO 34014KT 5SM +RA BR FEW003 BKN006 BKN012 BKN018 OVC025 12/11 A2988 RMK AO2 CIG 006V013 BKN006 V SCT $
Loading
Personal Weather Stations






























Interactive Weather Map
Tropical Storm Tracking
New forecast layout! Learn more

10-Day Weather Forecast

Advertisements
Track Severe Weather on mobile